Time;durP1;ratioP1;P1;durP2;ratioP2;P2;SDS_P1;SDS_P2;PMS_P1;PMS_P2;Temp;Humidity;BMP_temperature;BMP_pressure;BME280_temperature;BME280_humidity;BME280_pressure;Samples;Min_cycle;Max_cycle;Signal;HPM_P1;HPM_P2
2021/10/29 00:02:02;;;;;;;19.87;12.03;;;9.10;99.90;;;;;;5082411;28;20685;-76
2021/10/29 00:04:29;;;;;;;21.23;11.47;;;9.10;99.90;;;;;;5076517;28;20312;-76
2021/10/29 00:06:56;;;;;;;19.13;12.00;;;9.10;99.90;;;;;;5082709;28;20291;-77
2021/10/29 00:09:23;;;;;;;17.03;10.37;;;9.10;99.90;;;;;;5087904;28;20245;-76
2021/10/29 00:11:50;;;;;;;21.27;11.87;;;9.10;99.90;;;;;;5088280;28;20320;-76
2021/10/29 00:14:17;;;;;;;22.97;12.83;;;9.10;99.90;;;;;;5087030;28;20200;-76
2021/10/29 00:16:45;;;;;;;20.67;12.10;;;9.00;99.90;;;;;;5088199;28;20201;-76
2021/10/29 00:19:12;;;;;;;17.57;10.77;;;9.00;99.90;;;;;;5087866;28;20219;-76
2021/10/29 00:21:39;;;;;;;20.63;11.30;;;9.00;99.90;;;;;;5088094;28;20612;-76
2021/10/29 00:24:06;;;;;;;17.37;10.83;;;9.00;99.90;;;;;;5087662;28;20654;-76
2021/10/29 00:26:33;;;;;;;22.57;13.60;;;9.00;99.90;;;;;;5086121;28;20218;-76
2021/10/29 00:29:00;;;;;;;23.97;13.07;;;9.00;99.90;;;;;;5085957;28;20252;-76
2021/10/29 00:31:27;;;;;;;25.53;14.13;;;8.90;99.90;;;;;;5086491;28;20289;-76
2021/10/29 00:33:56;;;;;;;28.67;15.83;;;8.90;99.90;;;;;;5082617;28;20614;-76
2021/10/29 00:36:23;;;;;;;29.10;15.13;;;8.90;99.90;;;;;;5086808;28;20682;-76
2021/10/29 00:38:50;;;;;;;29.13;16.27;;;8.80;99.90;;;;;;5086068;28;20202;-76
2021/10/29 00:41:17;;;;;;;22.67;13.37;;;8.80;99.90;;;;;;5082366;28;20199;-76
2021/10/29 00:43:44;;;;;;;25.50;14.10;;;8.80;99.90;;;;;;5081715;28;20666;-76
2021/10/29 00:46:11;;;;;;;24.50;14.50;;;8.70;99.90;;;;;;5088365;28;20205;-77
2021/10/29 00:48:38;;;;;;;24.00;14.20;;;8.70;99.90;;;;;;5089109;28;20225;-77
2021/10/29 00:51:07;;;;;;;22.87;13.27;;;8.70;99.90;;;;;;5085064;28;20242;-75
2021/10/29 00:53:34;;;;;;;26.63;14.97;;;8.70;99.90;;;;;;5085296;28;20207;-76
2021/10/29 00:56:01;;;;;;;26.57;15.33;;;8.70;99.90;;;;;;5077579;28;20208;-76
2021/10/29 00:58:28;;;;;;;25.07;13.90;;;8.70;99.90;;;;;;5084351;28;20648;-76
2021/10/29 01:00:55;;;;;;;24.03;13.47;;;8.70;99.90;;;;;;5087080;28;20736;-76
2021/10/29 01:03:22;;;;;;;26.73;15.20;;;8.70;99.90;;;;;;5081588;28;20314;-76
2021/10/29 01:05:49;;;;;;;23.63;14.03;;;8.60;99.90;;;;;;5074861;28;20455;-76
2021/10/29 01:08:17;;;;;;;27.73;15.57;;;8.60;99.90;;;;;;5087829;28;20184;-76
2021/10/29 01:10:44;;;;;;;20.80;11.87;;;8.60;99.90;;;;;;5086109;28;20235;-76
2021/10/29 01:13:11;;;;;;;22.63;13.10;;;8.60;99.90;;;;;;5087564;28;20238;-76
2021/10/29 01:15:38;;;;;;;21.90;12.83;;;8.60;99.90;;;;;;5087687;28;20672;-76
2021/10/29 01:18:06;;;;;;;27.03;15.47;;;8.60;99.90;;;;;;5088317;28;20200;-76
2021/10/29 01:20:34;;;;;;;28.13;15.23;;;8.60;99.90;;;;;;5087471;28;20229;-75
2021/10/29 01:23:01;;;;;;;26.30;14.77;;;8.50;99.90;;;;;;5087505;28;20229;-76
2021/10/29 01:25:28;;;;;;;22.63;12.80;;;8.50;99.90;;;;;;5087538;28;20245;-76
2021/10/29 01:27:55;;;;;;;22.27;12.80;;;8.50;99.90;;;;;;5085462;28;20969;-75
2021/10/29 01:30:22;;;;;;;23.43;13.23;;;8.50;99.90;;;;;;5078360;28;20230;-76
2021/10/29 01:32:50;;;;;;;20.63;11.60;;;8.50;99.90;;;;;;5084393;28;20199;-76
2021/10/29 01:35:17;;;;;;;20.50;12.23;;;8.40;99.90;;;;;;5078924;28;20219;-75
2021/10/29 01:37:45;;;;;;;20.33;11.90;;;8.50;99.90;;;;;;5087356;28;20196;-76
2021/10/29 01:40:14;;;;;;;27.43;14.53;;;8.40;99.90;;;;;;5082853;28;20193;-76
2021/10/29 01:42:42;;;;;;;30.30;16.37;;;8.40;99.90;;;;;;5085778;28;20206;-75
2021/10/29 01:45:10;;;;;;;30.17;16.67;;;8.40;99.90;;;;;;5084248;28;20192;-75
2021/10/29 01:47:38;;;;;;;26.50;14.97;;;8.30;99.90;;;;;;5086702;28;20296;-76
2021/10/29 01:50:06;;;;;;;28.87;17.10;;;8.30;99.90;;;;;;5078094;28;20554;-76
2021/10/29 01:52:33;;;;;;;32.87;17.97;;;8.20;99.90;;;;;;5078443;28;20311;-76
2021/10/29 01:55:02;;;;;;;27.93;16.07;;;8.20;99.90;;;;;;5082956;28;20200;-76
2021/10/29 01:57:29;;;;;;;31.77;17.27;;;8.20;99.90;;;;;;5078013;28;20707;-75
2021/10/29 01:59:56;;;;;;;30.57;16.40;;;8.20;99.90;;;;;;5082702;28;20206;-75
2021/10/29 02:02:23;;;;;;;31.00;16.67;;;8.10;99.90;;;;;;5083732;28;20205;-76
2021/10/29 02:04:50;;;;;;;29.07;16.50;;;8.10;99.90;;;;;;5074201;28;20627;-76
2021/10/29 02:07:17;;;;;;;31.87;17.33;;;8.10;99.90;;;;;;5084847;28;20207;-76
2021/10/29 02:09:44;;;;;;;27.43;15.40;;;8.00;99.90;;;;;;5086948;28;20590;-76
2021/10/29 02:12:13;;;;;;;31.67;16.60;;;8.10;99.90;;;;;;5086903;28;20209;-76
2021/10/29 02:14:40;;;;;;;27.73;14.97;;;8.10;99.90;;;;;;5087500;28;20675;-76
2021/10/29 02:17:07;;;;;;;25.33;14.03;;;8.00;99.90;;;;;;5086019;28;20763;-76
2021/10/29 02:19:34;;;;;;;23.83;13.00;;;8.00;99.90;;;;;;5086789;28;20197;-76
2021/10/29 02:22:01;;;;;;;17.33;11.03;;;8.10;99.90;;;;;;5084009;28;20573;-75
2021/10/29 02:24:28;;;;;;;19.47;10.83;;;8.10;99.90;;;;;;5086783;28;20212;-76
2021/10/29 02:26:56;;;;;;;19.43;10.90;;;8.00;99.90;;;;;;5082432;28;20649;-76
2021/10/29 02:29:24;;;;;;;22.17;12.23;;;8.10;99.90;;;;;;5084419;28;20664;-75
2021/10/29 02:31:51;;;;;;;20.40;10.67;;;8.10;99.90;;;;;;5085582;28;20679;-76
2021/10/29 02:34:18;;;;;;;17.93;10.57;;;8.00;99.90;;;;;;5084734;28;20771;-75
2021/10/29 02:36:45;;;;;;;20.03;11.50;;;8.60;99.90;;;;;;5080395;28;20202;-75
2021/10/29 02:39:12;;;;;;;19.13;11.43;;;8.10;99.90;;;;;;5086102;28;20231;-76
2021/10/29 02:41:39;;;;;;;17.47;10.40;;;8.10;99.90;;;;;;5080444;28;20303;-76
2021/10/29 02:44:06;;;;;;;19.80;11.33;;;8.10;99.90;;;;;;5085937;28;20188;-76
2021/10/29 02:46:36;;;;;;;19.33;10.77;;;8.00;99.90;;;;;;5080935;28;20541;-76
2021/10/29 02:49:03;;;;;;;18.83;11.27;;;8.10;99.90;;;;;;5090897;28;20288;-76
2021/10/29 02:51:30;;;;;;;21.73;12.73;;;8.10;99.90;;;;;;5094616;28;20677;-76
2021/10/29 02:53:57;;;;;;;22.57;12.47;;;8.00;99.90;;;;;;5089948;28;20200;-76
2021/10/29 02:56:25;;;;;;;25.07;14.23;;;8.00;99.90;;;;;;5084815;28;20201;-76
2021/10/29 02:58:52;;;;;;;26.87;13.57;;;8.00;99.90;;;;;;5075793;28;20207;-76
2021/10/29 03:01:19;;;;;;;28.27;14.77;;;8.00;99.90;;;;;;5083175;28;20197;-76
2021/10/29 03:03:47;;;;;;;27.33;14.90;;;8.00;99.90;;;;;;5095987;28;20669;-76
2021/10/29 03:06:14;;;;;;;30.20;15.50;;;8.00;99.90;;;;;;5078666;28;20215;-76
2021/10/29 03:08:41;;;;;;;28.70;15.83;;;8.00;99.90;;;;;;5091680;28;20195;-76
2021/10/29 03:11:08;;;;;;;30.67;15.53;;;8.00;99.90;;;;;;5089936;28;20231;-76
2021/10/29 03:13:35;;;;;;;29.03;15.67;;;7.90;99.90;;;;;;5088225;28;20204;-76
2021/10/29 03:16:02;;;;;;;36.57;18.10;;;8.00;99.90;;;;;;5089916;28;20699;-75
2021/10/29 03:18:29;;;;;;;27.43;14.50;;;8.00;99.90;;;;;;5089630;28;20660;-75
2021/10/29 03:20:58;;;;;;;24.43;13.70;;;7.90;99.90;;;;;;5076309;28;20311;-75
2021/10/29 03:23:25;;;;;;;23.00;12.27;;;8.00;99.90;;;;;;5087844;28;20546;-75
2021/10/29 03:25:52;;;;;;;20.10;11.37;;;8.00;99.90;;;;;;5089737;28;20216;-76
2021/10/29 03:28:19;;;;;;;20.30;11.07;;;8.00;99.90;;;;;;5087384;28;20196;-76
2021/10/29 03:30:46;;;;;;;20.07;11.13;;;8.00;99.90;;;;;;5088865;28;20658;-76
2021/10/29 03:33:13;;;;;;;16.67;9.07;;;8.00;99.90;;;;;;5084440;28;20200;-76
2021/10/29 03:35:40;;;;;;;20.70;11.63;;;8.00;99.90;;;;;;5090284;28;20204;-76
2021/10/29 03:38:24;;;;;;;18.83;11.17;;;8.00;99.90;;;;;;5087643;28;20236;-76
2021/10/29 03:40:54;;;;;;;25.77;12.53;;;8.00;99.90;;;;;;5080833;28;20223;-76
2021/10/29 03:43:25;;;;;;;23.70;13.10;;;8.00;99.90;;;;;;5088587;28;20197;-76
2021/10/29 03:45:54;;;;;;;24.93;13.43;;;8.00;99.90;;;;;;5085129;28;20306;-76
2021/10/29 03:48:28;;;;;;;26.80;13.27;;;8.00;99.90;;;;;;5098727;28;20617;-76
2021/10/29 03:51:10;;;;;;;19.73;11.50;;;8.00;99.90;;;;;;5088594;28;20226;-76
2021/10/29 03:53:44;;;;;;;18.20;9.97;;;7.90;99.90;;;;;;5085180;28;20200;-76
2021/10/29 03:56:18;;;;;;;23.50;12.37;;;7.90;99.90;;;;;;5081170;28;20192;-76
2021/10/29 03:58:45;;;;;;;18.83;11.10;;;7.90;99.90;;;;;;5080652;28;20660;-76
2021/10/29 04:01:12;;;;;;;23.07;13.13;;;7.90;99.90;;;;;;5088485;28;20210;-75
2021/10/29 04:03:39;;;;;;;26.87;13.60;;;7.90;99.90;;;;;;5083128;28;20242;-76
2021/10/29 04:06:06;;;;;;;25.77;13.27;;;7.90;99.90;;;;;;5078061;28;20299;-76
2021/10/29 04:08:33;;;;;;;27.43;14.50;;;7.90;99.90;;;;;;5089446;28;20218;-76
2021/10/29 04:11:02;;;;;;;20.07;12.23;;;7.90;99.90;;;;;;5089572;28;20302;-76
2021/10/29 04:13:33;;;;;;;26.10;14.13;;;7.80;99.90;;;;;;5087913;28;20230;-76
2021/10/29 04:16:01;;;;;;;27.93;15.53;;;7.80;99.90;;;;;;5078626;28;20192;-76
2021/10/29 04:18:28;;;;;;;26.30;13.67;;;7.80;99.90;;;;;;5088033;28;20609;-76
2021/10/29 04:20:55;;;;;;;24.23;12.80;;;7.80;99.90;;;;;;5087091;28;20641;-76
2021/10/29 04:23:22;;;;;;;21.13;12.40;;;7.70;99.90;;;;;;5089071;28;20597;-76
2021/10/29 04:25:49;;;;;;;25.43;13.50;;;7.70;99.90;;;;;;5088575;28;20227;-76
2021/10/29 04:28:18;;;;;;;28.03;14.90;;;7.70;99.90;;;;;;5084553;28;20676;-76
2021/10/29 04:30:46;;;;;;;30.03;16.43;;;7.70;99.90;;;;;;5083816;28;20331;-76
2021/10/29 04:33:14;;;;;;;31.30;16.93;;;7.70;99.90;;;;;;5085757;28;20676;-76
2021/10/29 04:35:44;;;;;;;26.73;15.63;;;7.70;99.90;;;;;;5084983;28;20200;-76
2021/10/29 04:38:12;;;;;;;30.47;16.90;;;7.70;99.90;;;;;;5089137;28;20306;-76
2021/10/29 04:40:40;;;;;;;24.33;13.20;;;7.70;99.90;;;;;;5088598;28;20201;-76
2021/10/29 04:43:09;;;;;;;23.07;13.57;;;7.60;99.90;;;;;;5087679;28;20219;-76
2021/10/29 04:45:38;;;;;;;21.00;12.20;;;7.60;99.90;;;;;;5083386;28;20672;-76
2021/10/29 04:48:06;;;;;;;28.63;16.80;;;7.60;99.90;;;;;;5089068;28;20300;-76
2021/10/29 04:50:33;;;;;;;26.13;15.40;;;7.60;99.90;;;;;;5083727;28;20623;-76
2021/10/29 04:53:00;;;;;;;28.93;14.13;;;7.50;99.90;;;;;;5076443;28;20215;-76
2021/10/29 04:55:28;;;;;;;26.80;14.27;;;7.50;99.90;;;;;;5086313;28;20200;-76
2021/10/29 04:57:56;;;;;;;22.67;12.40;;;7.50;99.90;;;;;;5081264;28;20261;-76
2021/10/29 05:00:24;;;;;;;19.23;10.43;;;7.50;99.90;;;;;;5086290;28;20323;-76
2021/10/29 05:02:54;;;;;;;19.80;12.23;;;7.50;99.90;;;;;;5087728;28;20299;-75
2021/10/29 05:05:21;;;;;;;20.90;10.83;;;7.50;99.90;;;;;;5084025;28;20189;-75
2021/10/29 05:07:49;;;;;;;16.60;10.33;;;7.40;99.90;;;;;;5090148;28;20204;-75
2021/10/29 05:10:16;;;;;;;23.53;12.50;;;7.40;99.90;;;;;;5081251;28;20292;-75
2021/10/29 05:12:45;;;;;;;23.03;13.23;;;7.40;99.90;;;;;;5074005;28;20224;-76
2021/10/29 05:15:12;;;;;;;23.33;12.67;;;7.40;99.90;;;;;;5086133;28;20232;-75
2021/10/29 05:17:41;;;;;;;23.00;13.07;;;7.40;99.90;;;;;;5077208;28;20204;-75
2021/10/29 05:20:09;;;;;;;19.37;11.10;;;7.30;99.90;;;;;;5087165;28;20243;-76
2021/10/29 05:22:37;;;;;;;16.63;10.47;;;7.30;99.90;;;;;;5088210;28;20239;-75
2021/10/29 05:25:05;;;;;;;16.73;9.93;;;7.30;99.90;;;;;;5085744;28;20303;-76
2021/10/29 05:27:32;;;;;;;18.47;11.10;;;7.30;99.90;;;;;;5088018;28;20690;-77
2021/10/29 05:29:59;;;;;;;18.93;11.27;;;7.30;99.90;;;;;;5085079;28;20196;-75
2021/10/29 05:32:26;;;;;;;18.97;10.20;;;7.30;99.90;;;;;;5075751;28;20295;-76
2021/10/29 05:34:59;;;;;;;19.13;11.07;;;7.30;99.90;;;;;;5083506;28;20204;-75
2021/10/29 05:37:29;;;;;;;21.80;13.23;;;7.30;99.90;;;;;;5077132;28;20200;-75
2021/10/29 05:39:57;;;;;;;24.53;13.03;;;7.20;99.90;;;;;;5087649;28;20743;-75
2021/10/29 05:42:24;;;;;;;20.00;11.50;;;7.20;99.90;;;;;;5086851;28;20224;-77
2021/10/29 05:44:52;;;;;;;18.40;11.30;;;7.20;99.90;;;;;;5082193;28;20245;-75
2021/10/29 05:47:19;;;;;;;21.37;11.43;;;7.20;99.90;;;;;;5087050;28;20293;-75
2021/10/29 05:49:47;;;;;;;17.50;9.90;;;7.20;99.90;;;;;;5087663;28;21087;-75
2021/10/29 05:52:18;;;;;;;19.00;10.37;;;7.20;99.90;;;;;;5074959;28;20269;-75
2021/10/29 05:55:13;;;;;;;20.60;11.17;;;7.20;99.90;;;;;;5086750;28;20238;-75
2021/10/29 05:57:41;;;;;;;24.13;13.07;;;7.20;99.90;;;;;;5076958;28;20208;-75
2021/10/29 06:00:10;;;;;;;28.90;15.63;;;7.20;99.90;;;;;;5078566;28;20251;-76
2021/10/29 06:02:40;;;;;;;37.60;18.23;;;7.20;99.90;;;;;;5086985;28;20541;-75
2021/10/29 06:05:08;;;;;;;27.37;15.97;;;7.20;99.90;;;;;;5075192;28;20197;-76
2021/10/29 06:07:36;;;;;;;31.30;17.10;;;7.10;99.90;;;;;;5087514;28;20196;-76
2021/10/29 06:10:06;;;;;;;25.90;14.90;;;7.10;99.90;;;;;;5087037;28;20204;-76
2021/10/29 06:12:35;;;;;;;26.83;15.37;;;7.20;99.90;;;;;;5086372;28;20672;-76
2021/10/29 06:15:02;;;;;;;27.87;15.83;;;7.20;99.90;;;;;;5085822;28;20219;-76
2021/10/29 06:17:30;;;;;;;31.67;16.10;;;7.20;99.90;;;;;;5086446;28;20216;-76
2021/10/29 06:19:58;;;;;;;26.33;15.07;;;7.20;99.90;;;;;;5084002;28;20231;-76
2021/10/29 06:22:25;;;;;;;25.10;15.07;;;7.30;99.90;;;;;;5086964;28;20616;-76
2021/10/29 06:24:53;;;;;;;37.00;16.87;;;7.30;99.90;;;;;;5084393;28;20536;-76
2021/10/29 06:30:08;;;;;;;33.53;17.53;;;7.30;99.90;;;;;;5086213;28;20300;-76
2021/10/29 06:32:37;;;;;;;29.50;15.77;;;7.30;99.90;;;;;;5087436;28;20621;-76
2021/10/29 06:35:05;;;;;;;22.47;13.87;;;7.30;99.90;;;;;;5086764;28;20204;-77
2021/10/29 06:37:34;;;;;;;29.07;15.63;;;7.40;99.90;;;;;;5087587;28;20204;-76
2021/10/29 06:40:01;;;;;;;30.20;17.47;;;7.40;99.90;;;;;;5087066;28;20231;-76
2021/10/29 06:42:31;;;;;;;27.67;16.10;;;7.40;99.90;;;;;;5082265;28;20208;-76
2021/10/29 06:45:10;;;;;;;26.60;14.90;;;7.50;99.90;;;;;;5077986;28;20201;-76
2021/10/29 06:47:50;;;;;;;25.83;14.50;;;7.50;99.90;;;;;;5082187;28;20213;-77
2021/10/29 07:01:23;;;;;;;22.23;12.27;;;7.80;99.90;;;;;;5074355;28;20197;-75
2021/10/29 07:12:31;;;;;;;38.53;19.20;;;8.00;99.90;;;;;;5058709;28;20270;-76
2021/10/29 07:40:00;;;;;;;18.53;11.13;;;10.90;99.90;;;;;;5045607;28;20206;-76
2021/10/29 07:42:30;;;;;;;19.70;11.60;;;10.80;99.90;;;;;;5044495;28;20672;-76
2021/10/29 07:44:58;;;;;;;18.03;10.43;;;10.80;99.90;;;;;;5085134;28;20219;-76
2021/10/29 07:47:26;;;;;;;26.67;15.30;;;10.80;99.90;;;;;;5089086;28;20243;-76
2021/10/29 07:49:53;;;;;;;27.97;14.97;;;10.70;99.90;;;;;;5085254;28;20213;-76
2021/10/29 07:52:21;;;;;;;23.83;14.10;;;10.70;99.90;;;;;;5084155;28;20214;-76
2021/10/29 07:54:48;;;;;;;25.97;14.83;;;10.70;99.90;;;;;;5077660;28;20235;-76
2021/10/29 07:57:18;;;;;;;26.30;14.93;;;10.70;99.90;;;;;;5081654;28;20208;-76
2021/10/29 07:59:47;;;;;;;23.83;14.87;;;10.70;99.90;;;;;;5077577;28;20211;-76
2021/10/29 08:02:15;;;;;;;25.33;14.70;;;10.70;99.90;;;;;;5086639;28;20620;-76
2021/10/29 08:04:43;;;;;;;25.40;14.60;;;10.80;99.90;;;;;;5080118;28;20238;-76
2021/10/29 08:07:11;;;;;;;22.83;13.43;;;10.80;99.90;;;;;;5084364;28;20208;-76
2021/10/29 08:09:38;;;;;;;22.00;12.57;;;10.90;99.90;;;;;;5090811;28;20237;-75
2021/10/29 08:12:06;;;;;;;24.93;14.87;;;10.90;99.90;;;;;;5088548;28;20286;-76
2021/10/29 08:14:33;;;;;;;22.60;13.03;;;11.00;99.90;;;;;;5088710;28;20221;-75
2021/10/29 08:17:01;;;;;;;26.47;15.77;;;11.10;99.90;;;;;;5087101;28;20643;-76
2021/10/29 08:19:30;;;;;;;28.17;15.53;;;11.20;99.90;;;;;;5089426;28;20503;-75
2021/10/29 08:21:58;;;;;;;28.77;17.00;;;11.20;99.90;;;;;;5087837;28;20197;-76
2021/10/29 08:24:26;;;;;;;27.53;16.20;;;11.30;99.90;;;;;;5088576;28;20305;-75
2021/10/29 08:26:53;;;;;;;25.90;14.73;;;11.30;99.90;;;;;;5089036;28;20748;-76
2021/10/29 08:29:21;;;;;;;24.07;14.53;;;11.40;99.90;;;;;;5089144;28;20277;-76
2021/10/29 08:31:48;;;;;;;26.17;15.80;;;11.50;99.90;;;;;;5088312;28;20223;-75
2021/10/29 08:34:16;;;;;;;34.67;18.97;;;11.60;99.90;;;;;;5089029;28;20296;-76
2021/10/29 08:36:44;;;;;;;24.30;14.23;;;11.70;99.90;;;;;;5083104;28;20200;-76
2021/10/29 08:39:14;;;;;;;24.37;14.53;;;11.90;99.90;;;;;;5086604;28;20221;-75
2021/10/29 08:41:43;;;;;;;20.53;12.03;;;12.10;99.90;;;;;;5089291;28;20685;-76
2021/10/29 08:44:11;;;;;;;22.93;13.07;;;12.30;99.90;;;;;;5088391;28;20204;-76
2021/10/29 08:46:38;;;;;;;29.77;16.17;;;12.80;99.90;;;;;;5087545;28;20304;-76
2021/10/29 08:49:07;;;;;;;21.37;13.30;;;13.70;99.90;;;;;;5085321;28;20195;-76
2021/10/29 08:51:35;;;;;;;26.10;13.93;;;14.80;99.90;;;;;;5088662;28;20215;-76
2021/10/29 08:54:03;;;;;;;19.30;11.83;;;16.10;99.90;;;;;;5088289;28;20210;-76
2021/10/29 08:56:31;;;;;;;17.27;10.73;;;17.30;99.90;;;;;;5080893;28;20215;-76
2021/10/29 08:59:11;;;;;;;20.13;13.00;;;18.40;99.90;;;;;;5087309;28;20283;-77
2021/10/29 09:01:50;;;;;;;17.67;10.80;;;19.20;97.70;;;;;;5080440;28;20672;-77
2021/10/29 09:04:23;;;;;;;19.83;12.87;;;19.60;95.80;;;;;;5084664;28;20221;-76
2021/10/29 09:06:57;;;;;;;20.07;12.10;;;20.00;94.00;;;;;;5088318;28;20750;-76
2021/10/29 09:09:43;;;;;;;18.40;11.23;;;20.00;92.80;;;;;;5082464;28;20208;-76
2021/10/29 09:31:22;;;;;;;15.73;9.73;;;20.90;91.30;;;;;;4983001;28;20596;-77
2021/10/29 09:32:00;;;;;;;17.25;11.73;;;23.90;73.70;;;;;;4947747;28;20240;-77
2021/10/29 09:34:28;;;;;;;13.65;9.20;;;24.40;71.10;;;;;;4961227;28;20240;-77
2021/10/29 09:36:55;;;;;;;17.60;10.43;;;24.80;69.80;;;;;;4955269;28;20204;-77
2021/10/29 09:39:35;;;;;;;12.35;8.30;;;25.20;68.70;;;;;;4939326;28;20240;-77
2021/10/29 09:42:17;;;;;;;15.82;10.30;;;25.60;67.30;;;;;;4951512;28;20703;-77
2021/10/29 09:44:47;;;;;;;12.20;9.50;;;25.50;64.00;;;;;;4954888;28;20219;-77
2021/10/29 09:47:18;;;;;;;18.48;12.30;;;25.20;62.60;;;;;;4937889;28;20609;-77
2021/10/29 09:50:02;;;;;;;16.35;11.65;;;25.00;60.70;;;;;;4951994;28;20212;-77
2021/10/29 09:55:19;;;;;;;16.27;11.60;;;24.80;58.30;;;;;;5040717;28;20220;-77
2021/10/29 09:57:48;;;;;;;17.15;11.02;;;25.00;57.60;;;;;;5043550;28;20323;-77
2021/10/29 10:00:17;;;;;;;14.52;10.18;;;25.30;56.80;;;;;;5040890;28;20339;-78
2021/10/29 10:02:46;;;;;;;14.35;10.25;;;25.70;56.10;;;;;;5036530;28;20300;-77
2021/10/29 10:05:15;;;;;;;14.73;10.63;;;25.80;54.60;;;;;;5047024;28;20203;-77
2021/10/29 10:07:46;;;;;;;16.65;10.88;;;25.80;53.30;;;;;;5076364;28;20228;-77
2021/10/29 10:10:13;;;;;;;12.63;8.70;;;25.90;53.50;;;;;;5086198;28;20200;-77
2021/10/29 10:12:44;;;;;;;11.93;9.20;;;26.20;53.60;;;;;;5075632;28;20703;-77
2021/10/29 10:15:12;;;;;;;12.80;9.52;;;26.60;53.10;;;;;;5084808;28;20296;-77
2021/10/29 10:17:41;;;;;;;10.75;8.25;;;26.90;51.90;;;;;;5087367;28;20653;-77
2021/10/29 10:20:09;;;;;;;11.07;8.38;;;27.00;51.70;;;;;;5087658;28;20245;-77
2021/10/29 10:22:40;;;;;;;14.98;9.95;;;27.20;51.40;;;;;;5087519;28;20673;-77
2021/10/29 10:25:13;;;;;;;15.82;9.95;;;27.30;50.30;;;;;;5084399;28;20212;-77
2021/10/29 10:28:09;;;;;;;15.65;10.13;;;27.30;49.00;;;;;;5085578;28;20230;-77
2021/10/29 10:30:46;;;;;;;11.20;7.90;;;27.50;49.00;;;;;;5083793;28;20270;-77
2021/10/29 10:42:11;;;;;;;13.73;8.75;;;27.90;47.00;;;;;;5080516;28;20220;-76
2021/10/29 10:44:58;;;;;;;9.32;8.13;;;27.90;46.40;;;;;;5080485;28;20201;-76
2021/10/29 10:47:26;;;;;;;9.70;7.82;;;28.00;46.10;;;;;;5080266;28;20212;-76
2021/10/29 10:50:11;;;;;;;10.38;7.68;;;28.10;45.80;;;;;;5081402;28;20267;-76
2021/10/29 10:53:16;;;;;;;10.88;8.65;;;28.20;45.90;;;;;;5085037;28;20216;-76
2021/10/29 10:56:16;;;;;;;8.70;6.75;;;28.30;45.60;;;;;;5073193;28;20575;-76
2021/10/29 10:58:59;;;;;;;12.30;7.97;;;28.50;45.70;;;;;;5085910;28;20743;-76
2021/10/29 11:01:59;;;;;;;8.50;6.82;;;28.30;45.60;;;;;;5108991;28;20238;-76
2021/10/29 11:04:42;;;;;;;8.93;6.90;;;27.50;46.00;;;;;;5077609;28;20696;-76
2021/10/29 11:07:37;;;;;;;9.88;7.00;;;26.50;46.60;;;;;;5085651;28;20208;-76
2021/10/29 11:10:07;;;;;;;12.18;9.07;;;25.60;47.40;;;;;;5084785;28;20204;-76
2021/10/29 11:13:06;;;;;;;10.48;7.30;;;24.70;47.50;;;;;;5084861;28;20213;-76
2021/10/29 11:15:33;;;;;;;9.88;7.30;;;24.00;48.50;;;;;;5087048;28;20279;-76
2021/10/29 11:18:02;;;;;;;9.95;7.75;;;23.40;48.90;;;;;;5090485;28;20232;-76
2021/10/29 11:20:43;;;;;;;10.20;7.88;;;22.90;49.30;;;;;;5088123;28;20341;-76
2021/10/29 11:23:17;;;;;;;14.02;9.88;;;22.50;49.90;;;;;;5090644;28;20204;-76
2021/10/29 11:25:53;;;;;;;12.52;8.90;;;22.00;49.80;;;;;;5111945;27;20578;-77
2021/10/29 11:28:25;;;;;;;12.60;9.00;;;21.60;50.20;;;;;;5086849;28;20211;-76
2021/10/29 11:30:55;;;;;;;12.88;9.13;;;21.20;50.80;;;;;;5090110;28;20208;-76
2021/10/29 11:33:23;;;;;;;11.65;7.60;;;20.80;51.40;;;;;;5086477;28;20227;-76
2021/10/29 11:36:05;;;;;;;11.13;8.65;;;20.50;51.90;;;;;;5088683;28;20248;-76
2021/10/29 11:38:35;;;;;;;16.13;10.73;;;20.20;52.50;;;;;;5089498;28;20741;-76
2021/10/29 11:41:04;;;;;;;12.25;8.98;;;19.80;53.10;;;;;;5089428;28;20306;-76
2021/10/29 11:43:33;;;;;;;15.77;9.60;;;19.50;53.50;;;;;;5086788;28;20497;-76
2021/10/29 11:46:04;;;;;;;14.05;9.43;;;19.30;54.10;;;;;;5089592;28;20195;-77
2021/10/29 11:48:31;;;;;;;14.75;10.30;;;19.10;54.60;;;;;;5111784;27;20291;-76
2021/10/29 11:51:07;;;;;;;12.07;8.45;;;18.90;55.70;;;;;;5084772;28;20196;-77
2021/10/29 11:53:41;;;;;;;14.88;9.13;;;18.80;55.50;;;;;;5113817;27;20700;-77
2021/10/29 11:56:21;;;;;;;19.40;12.10;;;18.60;56.00;;;;;;5085518;28;20725;-76
2021/10/29 11:59:04;;;;;;;16.08;11.50;;;18.50;56.80;;;;;;5081751;28;20212;-77
2021/10/29 12:01:35;;;;;;;18.67;11.20;;;18.20;57.40;;;;;;5079451;28;20220;-77
2021/10/29 12:09:32;;;;;;;15.70;9.57;;;17.80;58.00;;;;;;5088719;28;20192;-76
2021/10/29 12:12:05;;;;;;;11.43;8.27;;;17.60;58.00;;;;;;5089158;28;20618;-76
2021/10/29 12:14:33;;;;;;;12.35;8.77;;;17.50;58.10;;;;;;5088680;28;20491;-76
2021/10/29 12:17:10;;;;;;;14.47;9.40;;;17.40;58.20;;;;;;5086089;28;20263;-76
2021/10/29 12:19:39;;;;;;;13.43;9.35;;;17.30;58.40;;;;;;5087782;28;20195;-76
2021/10/29 12:24:53;;;;;;;13.57;9.75;;;17.20;58.60;;;;;;5084577;28;20641;-76
2021/10/29 12:27:28;;;;;;;15.05;9.80;;;17.10;58.50;;;;;;5110717;27;20208;-76
2021/10/29 12:30:20;;;;;;;14.13;9.20;;;17.00;58.70;;;;;;5085454;28;20263;-76
2021/10/29 12:33:17;;;;;;;13.03;7.60;;;16.90;58.90;;;;;;5079675;28;20584;-77
2021/10/29 12:58:52;;;;;;;17.73;10.70;;;16.30;60.70;;;;;;4945879;28;20228;-75
2021/10/29 13:01:29;;;;;;;13.50;8.57;;;16.20;61.90;;;;;;4960830;28;20369;-76
2021/10/29 13:03:58;;;;;;;12.33;8.33;;;16.10;61.30;;;;;;4952138;28;20240;-76
2021/10/29 13:06:33;;;;;;;10.93;8.07;;;16.00;61.50;;;;;;4952435;28;20212;-76
2021/10/29 13:09:02;;;;;;;14.43;9.43;;;16.00;61.90;;;;;;4950650;28;20216;-76
2021/10/29 13:11:37;;;;;;;15.13;9.13;;;15.90;62.20;;;;;;4952230;28;20295;-76
2021/10/29 13:14:06;;;;;;;19.97;10.30;;;15.90;62.60;;;;;;4967514;28;20696;-76
2021/10/29 13:16:34;;;;;;;15.10;9.77;;;15.80;63.10;;;;;;4951494;28;20244;-76
2021/10/29 13:19:29;;;;;;;14.73;9.37;;;15.80;63.50;;;;;;4967584;28;20248;-76
2021/10/29 13:25:00;;;;;;;12.20;8.80;;;15.60;64.60;;;;;;5029917;28;20240;-76
2021/10/29 13:35:50;;;;;;;13.13;8.47;;;15.50;66.00;;;;;;5087697;28;20192;-76
2021/10/29 13:52:22;;;;;;;13.73;8.20;;;15.10;67.90;;;;;;4978488;28;20722;-77
2021/10/29 13:54:58;;;;;;;12.43;9.03;;;15.10;68.30;;;;;;4974714;28;20691;-77
2021/10/29 14:00:48;;;;;;;14.70;10.10;;;15.10;69.30;;;;;;4957927;28;20692;-77
2021/10/29 14:24:20;;;;;;;15.53;9.63;;;14.70;72.20;;;;;;4986002;28;20196;-77
2021/10/29 14:28:17;;;;;;;14.63;8.10;;;14.50;74.10;;;;;;5078132;28;20679;-77
2021/10/29 14:30:51;;;;;;;17.97;10.60;;;14.40;74.60;;;;;;5082670;28;20215;-77
2021/10/29 14:33:21;;;;;;;13.17;8.50;;;14.30;75.30;;;;;;5087545;28;20257;-77
2021/10/29 14:35:53;;;;;;;10.53;7.90;;;14.30;75.70;;;;;;5083583;28;20678;-77
2021/10/29 14:38:27;;;;;;;14.87;10.07;;;14.20;76.20;;;;;;5090166;28;20211;-76
2021/10/29 14:40:57;;;;;;;16.83;9.70;;;14.20;76.80;;;;;;5090592;28;20213;-77
2021/10/29 14:43:27;;;;;;;15.93;9.57;;;14.10;77.50;;;;;;5080740;28;20261;-77
2021/10/29 14:46:03;;;;;;;15.70;9.97;;;14.10;78.20;;;;;;5090246;28;20239;-77
2021/10/29 14:48:41;;;;;;;17.27;10.60;;;14.00;78.80;;;;;;5087699;28;20261;-77
2021/10/29 15:02:37;;;;;;;21.47;11.80;;;13.70;82.70;;;;;;4985982;28;20213;-76
2021/10/29 15:05:22;;;;;;;17.63;10.60;;;13.60;83.30;;;;;;4975664;28;20695;-77
2021/10/29 15:27:34;;;;;;;19.77;11.50;;;13.00;88.70;;;;;;4892240;29;20216;-77
2021/10/29 15:30:05;;;;;;;20.07;11.83;;;13.00;89.60;;;;;;4892877;29;20730;-77
2021/10/29 15:44:04;;;;;;;18.00;11.43;;;12.60;91.40;;;;;;4901946;29;20234;-77
2021/10/29 15:46:36;;;;;;;19.93;11.27;;;12.50;91.60;;;;;;4911856;29;20222;-77
2021/10/29 15:49:09;;;;;;;18.33;11.63;;;12.60;91.80;;;;;;4895875;29;20755;-77
2021/10/29 15:51:37;;;;;;;19.37;11.90;;;12.50;92.00;;;;;;4903897;29;20206;-77
2021/10/29 15:54:09;;;;;;;21.33;12.53;;;12.40;92.30;;;;;;4895712;29;20275;-77
2021/10/29 15:56:42;;;;;;;19.60;11.67;;;12.40;92.50;;;;;;4924959;29;20215;-77
2021/10/29 15:59:20;;;;;;;19.43;12.30;;;12.40;92.70;;;;;;4999331;28;20667;-77
2021/10/29 16:01:51;;;;;;;22.50;11.90;;;12.30;92.90;;;;;;5010442;28;20214;-77
2021/10/29 16:18:07;;;;;;;18.37;10.53;;;12.00;94.00;;;;;;4973587;28;20219;-76
2021/10/29 16:20:34;;;;;;;21.03;11.90;;;12.00;94.20;;;;;;5006424;28;20219;-76
2021/10/29 16:23:03;;;;;;;17.63;10.77;;;12.00;94.40;;;;;;4992376;28;20618;-76
2021/10/29 16:25:33;;;;;;;19.23;10.87;;;11.90;94.50;;;;;;4994242;28;20295;-76
2021/10/29 16:28:03;;;;;;;18.13;10.73;;;11.90;94.70;;;;;;4991525;28;20643;-76